IWA1CE BIKF-EIDW
Flight info
| Callsign | IWA1CE |
|---|---|
| Flight time | N/A |
| Altitude | 37000 |
| Route | RIMUM1C RIMUM DCT RUMUX DCT RAPAX DCT ETILO/N0437F370 DCT EVNAL DCT TUXOS DCT BELZU DCT NUMPI P620 NIMAT NIMAT3R |
| Aircraft | B738/M-SDE3GIJ1RWY/LB1 |
Departure
| Time | 2026-04-29 20:52 |
|---|---|
| Airport | Keflavik International Airport (BIKF) |
Arrival
| Time | N/A |
|---|---|
| Airport | Dublin Airport (EIDW) |
| Time | Latitude | Longitude | Altitude | Speed | Heading |
|---|---|---|---|---|---|
| 2026-04-29 20:18 | 63.99482 | -22.62304 | 161 ft | 0 kts | 269° |
| 2026-04-29 20:44 | 63.99483 | -22.62260 | 161 ft | 4 kts | 263° |
| 2026-04-29 20:44 | 63.99487 | -22.62200 | 164 ft | 4 kts | 252° |
| 2026-04-29 20:44 | 63.99498 | -22.62144 | 164 ft | 4 kts | 235° |
| 2026-04-29 20:45 | 63.99515 | -22.62105 | 165 ft | 4 kts | 192° |
| 2026-04-29 20:45 | 63.99522 | -22.62102 | 166 ft | 0 kts | 178° |
| 2026-04-29 20:47 | 63.99504 | -22.62101 | 166 ft | 7 kts | 178° |
| 2026-04-29 20:48 | 63.99457 | -22.62077 | 163 ft | 7 kts | 156° |
| 2026-04-29 20:48 | 63.99412 | -22.62023 | 164 ft | 8 kts | 152° |
| 2026-04-29 20:48 | 63.99351 | -22.61995 | 164 ft | 10 kts | 179° |
| 2026-04-29 20:48 | 63.99277 | -22.61992 | 163 ft | 11 kts | 180° |
| 2026-04-29 20:49 | 63.99202 | -22.61986 | 164 ft | 10 kts | 172° |
| 2026-04-29 20:49 | 63.99171 | -22.61869 | 163 ft | 9 kts | 91° |
| 2026-04-29 20:49 | 63.99171 | -22.61707 | 163 ft | 11 kts | 90° |
| 2026-04-29 20:49 | 63.99171 | -22.61514 | 164 ft | 13 kts | 89° |
| 2026-04-29 20:50 | 63.99172 | -22.61291 | 164 ft | 15 kts | 90° |
| 2026-04-29 20:50 | 63.99172 | -22.61049 | 166 ft | 15 kts | 91° |
| 2026-04-29 20:50 | 63.99173 | -22.60814 | 167 ft | 14 kts | 90° |
| 2026-04-29 20:50 | 63.99172 | -22.60631 | 168 ft | 7 kts | 91° |
| 2026-04-29 20:51 | 63.99143 | -22.60549 | 168 ft | 7 kts | 163° |
| 2026-04-29 20:51 | 63.99123 | -22.60546 | 168 ft | 0 kts | 179° |
| 2026-04-29 20:51 | 63.98994 | -22.60544 | 163 ft | 53 kts | 180° |
| 2026-04-29 20:51 | 63.98401 | -22.60548 | 151 ft | 116 kts | 180° |
| 2026-04-29 20:52 | 63.97456 | -22.60539 | 422 ft | 141 kts | 186° |
| 2026-04-29 20:52 | 63.96474 | -22.60576 | 1197 ft | 146 kts | 187° |
| 2026-04-29 20:52 | 63.95391 | -22.60015 | 1630 ft | 182 kts | 164° |
| 2026-04-29 20:52 | 63.94159 | -22.58724 | 1902 ft | 206 kts | 163° |
| 2026-04-29 20:53 | 63.92785 | -22.57337 | 2174 ft | 230 kts | 162° |
| 2026-04-29 20:53 | 63.91285 | -22.55818 | 2923 ft | 238 kts | 162° |
| 2026-04-29 20:53 | 63.89766 | -22.54276 | 3845 ft | 240 kts | 162° |
| 2026-04-29 20:53 | 63.88226 | -22.52721 | 4748 ft | 243 kts | 163° |
| 2026-04-29 20:54 | 63.85097 | -22.49582 | 6377 ft | 253 kts | 162° |